Time;durP1;ratioP1;P1;durP2;ratioP2;P2;SDS_P1;SDS_P2;PMS_P1;PMS_P2;Temp;Humidity;BMP_temperature;BMP_pressure;BME280_temperature;BME280_humidity;BME280_pressure;Samples;Min_cycle;Max_cycle;Signal;HPM_P1;HPM_P2
2021/01/18 00:01:20;;;;;;;47.60;20.35;;;0.80;91.10;;;;;;5086863;28;20023;-74
2021/01/18 00:03:47;;;;;;;46.40;21.88;;;0.80;91.20;;;;;;5109236;28;20038;-74
2021/01/18 00:06:17;;;;;;;49.17;20.50;;;0.90;91.10;;;;;;5074334;28;20088;-73
2021/01/18 00:08:44;;;;;;;49.83;22.52;;;0.90;91.20;;;;;;5076728;28;20138;-74
2021/01/18 00:11:14;;;;;;;52.45;22.17;;;0.80;91.40;;;;;;5092840;27;20402;-73
2021/01/18 00:13:40;;;;;;;43.90;19.85;;;0.80;91.60;;;;;;5115591;27;20027;-73
2021/01/18 00:16:06;;;;;;;49.55;23.05;;;0.80;91.60;;;;;;5111898;27;20372;-74
2021/01/18 00:18:32;;;;;;;46.78;21.27;;;0.80;91.60;;;;;;5095658;28;20116;-73
2021/01/18 00:20:58;;;;;;;49.30;21.48;;;0.80;91.80;;;;;;5106024;28;20099;-74
2021/01/18 00:23:24;;;;;;;46.28;21.98;;;0.80;91.80;;;;;;5091619;28;20558;-74
2021/01/18 00:25:50;;;;;;;50.03;21.23;;;0.80;91.80;;;;;;5093349;28;20098;-74
2021/01/18 00:28:17;;;;;;;54.20;22.88;;;0.90;92.00;;;;;;5093920;28;20023;-74
2021/01/18 00:30:45;;;;;;;48.05;20.92;;;0.80;92.00;;;;;;5098871;28;20086;-75
2021/01/18 00:33:11;;;;;;;45.15;21.30;;;0.80;92.10;;;;;;5095338;28;20043;-74
2021/01/18 00:35:37;;;;;;;54.30;22.88;;;0.80;92.20;;;;;;5092652;28;20058;-74
2021/01/18 00:38:02;;;;;;;44.80;20.10;;;0.80;92.20;;;;;;5074133;28;20020;-74
2021/01/18 00:40:28;;;;;;;43.92;20.05;;;0.80;92.30;;;;;;5109612;28;20063;-74
2021/01/18 00:42:54;;;;;;;48.92;21.55;;;0.80;92.30;;;;;;5075636;28;20034;-74
2021/01/18 00:45:22;;;;;;;50.05;21.08;;;0.80;92.30;;;;;;5089639;28;20016;-74
2021/01/18 00:47:53;;;;;;;50.10;22.15;;;0.80;92.20;;;;;;5090600;28;20024;-74
2021/01/18 00:50:21;;;;;;;50.78;23.40;;;0.80;92.70;;;;;;5094899;28;20035;-73
2021/01/18 00:52:49;;;;;;;51.65;22.85;;;0.80;92.50;;;;;;5112074;28;20050;-74
2021/01/18 00:55:17;;;;;;;54.25;22.83;;;0.80;92.60;;;;;;5084676;28;20098;-74
2021/01/18 00:57:44;;;;;;;51.28;22.98;;;0.80;92.60;;;;;;5075638;28;20023;-73
2021/01/18 01:00:12;;;;;;;51.63;21.60;;;0.80;92.70;;;;;;5093410;28;20035;-74
2021/01/18 01:02:39;;;;;;;51.17;22.25;;;0.80;92.80;;;;;;5087990;28;20494;-74
2021/01/18 01:05:06;;;;;;;52.97;22.88;;;0.80;92.90;;;;;;5074428;28;20735;-74
2021/01/18 01:07:39;;;;;;;54.10;23.30;;;0.80;93.00;;;;;;5093487;28;20043;-74
2021/01/18 01:10:06;;;;;;;51.33;22.85;;;0.90;93.00;;;;;;5091537;28;20023;-74
2021/01/18 01:12:31;;;;;;;59.88;23.75;;;0.90;93.10;;;;;;5096230;28;20031;-73
2021/01/18 01:14:57;;;;;;;54.42;23.17;;;0.90;93.10;;;;;;5095219;28;20016;-74
2021/01/18 01:17:23;;;;;;;51.97;22.38;;;0.90;93.10;;;;;;5092566;28;20015;-74
2021/01/18 01:19:49;;;;;;;50.55;22.60;;;0.90;93.20;;;;;;5111901;28;20024;-74
2021/01/18 01:22:14;;;;;;;52.55;22.25;;;0.90;93.30;;;;;;5090136;28;20144;-74
2021/01/18 01:24:40;;;;;;;48.83;21.63;;;0.90;93.30;;;;;;5091867;28;20387;-74
2021/01/18 01:27:06;;;;;;;50.33;22.63;;;0.90;93.40;;;;;;5101677;28;20027;-74
2021/01/18 01:29:32;;;;;;;51.38;22.45;;;0.90;93.30;;;;;;5078413;28;20114;-74
2021/01/18 01:31:58;;;;;;;52.90;22.10;;;0.90;93.30;;;;;;5115678;27;20106;-74
2021/01/18 01:34:24;;;;;;;51.38;24.13;;;0.90;93.40;;;;;;5094089;28;20368;-74
2021/01/18 01:36:50;;;;;;;48.53;21.33;;;0.90;93.30;;;;;;5080857;27;20408;-73
2021/01/18 01:39:15;;;;;;;48.72;22.52;;;0.90;93.40;;;;;;5115882;27;20020;-73
2021/01/18 01:41:41;;;;;;;48.03;21.98;;;0.90;93.50;;;;;;5092995;28;20487;-73
2021/01/18 01:44:07;;;;;;;54.92;24.88;;;0.90;93.50;;;;;;5116466;27;20024;-73
2021/01/18 01:46:34;;;;;;;56.45;23.17;;;0.90;93.40;;;;;;5079413;28;20494;-73
2021/01/18 01:49:00;;;;;;;51.63;22.88;;;0.90;93.40;;;;;;5096985;28;20032;-74
2021/01/18 01:51:28;;;;;;;56.75;24.13;;;0.90;93.50;;;;;;5092579;27;20501;-73
2021/01/18 01:53:55;;;;;;;49.95;22.25;;;0.90;93.40;;;;;;5086713;28;20027;-73
2021/01/18 01:56:21;;;;;;;54.40;22.88;;;1.00;93.30;;;;;;5097584;27;20024;-74
2021/01/18 01:58:52;;;;;;;58.70;23.40;;;0.90;93.40;;;;;;5119318;27;20491;-74
2021/01/18 02:01:19;;;;;;;55.20;23.17;;;1.00;93.60;;;;;;5114715;22;20044;-77
2021/01/18 02:03:47;;;;;;;53.10;22.65;;;1.00;93.50;;;;;;5049073;28;20395;-76
2021/01/18 02:06:13;;;;;;;53.45;24.48;;;0.90;93.60;;;;;;5048829;28;20062;-75
2021/01/18 02:08:39;;;;;;;54.13;23.02;;;0.90;93.60;;;;;;5051933;28;20032;-78
2021/01/18 02:11:06;;;;;;;54.85;23.60;;;0.90;93.60;;;;;;5060578;28;20348;-78
2021/01/18 02:13:44;;;;;;;47.85;22.70;;;0.90;93.60;;;;;;5043732;28;20042;-78
2021/01/18 02:16:19;;;;;;;53.38;23.70;;;0.90;93.60;;;;;;5048500;28;20085;-78
2021/01/18 02:19:15;;;;;;;48.15;21.35;;;0.90;93.60;;;;;;5046221;28;20028;-78
2021/01/18 02:21:52;;;;;;;52.10;23.70;;;0.90;93.60;;;;;;5053092;28;20459;-78
2021/01/18 02:24:53;;;;;;;53.20;21.88;;;1.00;93.60;;;;;;5042749;28;20028;-78
2021/01/18 02:27:55;;;;;;;56.67;24.70;;;1.00;93.60;;;;;;5048078;28;20033;-78
2021/01/18 02:30:54;;;;;;;66.50;26.83;;;1.00;93.70;;;;;;5049170;28;20116;-77
2021/01/18 02:33:22;;;;;;;61.20;25.50;;;1.10;94.40;;;;;;5050855;28;20030;-78
2021/01/18 02:36:00;;;;;;;62.80;24.95;;;1.10;94.00;;;;;;5049032;28;20039;-78
2021/01/18 02:38:58;;;;;;;61.50;25.23;;;1.10;94.10;;;;;;5065732;28;20060;-77
2021/01/18 02:41:49;;;;;;;69.95;25.17;;;1.00;94.20;;;;;;5072724;28;20049;-78
2021/01/18 02:44:20;;;;;;;73.38;25.65;;;1.00;94.50;;;;;;5048655;28;20024;-77
2021/01/18 02:46:47;;;;;;;;;;;1.00;94.50;;;;;;5067469;28;20036;-78
2021/01/18 02:49:17;;;;;;;64.90;24.80;;;1.00;94.60;;;;;;5051974;28;20491;-78
2021/01/18 02:51:46;;;;;;;71.50;27.23;;;1.00;94.70;;;;;;5045680;28;20031;-78
2021/01/18 02:54:12;;;;;;;66.22;25.02;;;1.00;94.60;;;;;;5050541;28;20040;-77
2021/01/18 02:56:40;;;;;;;65.78;25.10;;;1.10;94.60;;;;;;5063540;28;20111;-77
2021/01/18 02:59:11;;;;;;;60.42;24.65;;;1.10;94.60;;;;;;5046431;28;20028;-77
2021/01/18 03:02:02;;;;;;;63.97;23.52;;;1.10;94.70;;;;;;5065390;28;20039;-77
2021/01/18 03:04:46;;;;;;;60.40;24.83;;;1.10;94.70;;;;;;5062587;28;20035;-78
2021/01/18 03:07:25;;;;;;;60.42;24.80;;;1.00;94.70;;;;;;5044657;28;20033;-78
2021/01/18 03:09:58;;;;;;;65.97;25.13;;;1.10;94.80;;;;;;5050680;28;20029;-78
2021/01/18 03:12:28;;;;;;;60.42;23.58;;;1.10;94.80;;;;;;5046269;28;20655;-78
2021/01/18 03:14:55;;;;;;;72.57;26.80;;;1.10;94.80;;;;;;5063979;28;20031;-77
2021/01/18 03:17:24;;;;;;;76.95;26.50;;;1.10;95.00;;;;;;5051120;28;20578;-78
2021/01/18 03:19:50;;;;;;;69.30;25.20;;;1.10;94.90;;;;;;5049601;28;20036;-78
2021/01/18 03:22:29;;;;;;;61.13;25.70;;;1.10;95.00;;;;;;5063876;28;20119;-78
2021/01/18 03:25:04;;;;;;;61.50;22.40;;;1.10;95.30;;;;;;5067165;28;20025;-77
2021/01/18 03:27:51;;;;;;;68.05;24.75;;;1.10;95.10;;;;;;5063462;28;20032;-78
2021/01/18 03:30:22;;;;;;;63.28;25.05;;;1.10;95.10;;;;;;5042045;28;20032;-75
2021/01/18 03:32:52;;;;;;;66.30;25.40;;;1.20;95.10;;;;;;5048424;28;20597;-78
2021/01/18 03:35:19;;;;;;;68.25;24.85;;;1.10;95.20;;;;;;5048605;28;20033;-76
2021/01/18 03:37:52;;;;;;;65.75;25.38;;;1.20;95.20;;;;;;5065566;28;20501;-78
2021/01/18 03:40:19;;;;;;;64.38;24.30;;;1.20;95.20;;;;;;5058608;28;20058;-76
2021/01/18 03:42:44;;;;;;;66.05;26.33;;;1.20;95.10;;;;;;5045802;28;20031;-76
2021/01/18 03:45:10;;;;;;;63.33;25.55;;;1.20;95.10;;;;;;5063193;28;20036;-76
2021/01/18 03:47:36;;;;;;;57.28;23.30;;;1.20;95.20;;;;;;5058642;28;20029;-76
2021/01/18 03:50:02;;;;;;;58.65;23.33;;;1.20;95.20;;;;;;5044119;28;20031;-77
2021/01/18 03:52:28;;;;;;;59.55;22.20;;;1.20;95.30;;;;;;5060109;28;20025;-76
2021/01/18 03:54:53;;;;;;;55.20;21.17;;;1.20;95.30;;;;;;5046925;28;20617;-76
2021/01/18 03:57:19;;;;;;;61.80;21.80;;;1.30;95.30;;;;;;5046779;28;20461;-76
2021/01/18 03:59:44;;;;;;;53.35;21.45;;;1.30;95.20;;;;;;5085324;28;20036;-76
2021/01/18 04:02:13;;;;;;;59.47;22.05;;;1.30;95.20;;;;;;5049104;28;20043;-76
2021/01/18 04:04:39;;;;;;;55.53;21.40;;;1.30;95.20;;;;;;5039482;28;20543;-76
2021/01/18 04:07:08;;;;;;;55.80;21.42;;;1.30;95.30;;;;;;5045889;28;20116;-76
2021/01/18 04:09:34;;;;;;;58.60;21.92;;;1.30;95.30;;;;;;5064753;28;20590;-76
2021/01/18 04:12:03;;;;;;;60.53;20.65;;;1.30;95.30;;;;;;5046362;28;20028;-76
2021/01/18 04:14:28;;;;;;;58.55;21.65;;;1.30;95.30;;;;;;5047430;28;20099;-76
2021/01/18 04:16:54;;;;;;;55.15;20.52;;;1.30;95.50;;;;;;5070558;28;20028;-76
2021/01/18 04:19:20;;;;;;;48.85;18.95;;;1.40;95.60;;;;;;5046372;28;20028;-76
2021/01/18 04:21:46;;;;;;;54.22;18.08;;;1.40;95.70;;;;;;5046875;28;20024;-76
2021/01/18 04:24:11;;;;;;;49.45;19.13;;;1.40;95.50;;;;;;5049016;28;20043;-76
2021/01/18 04:26:38;;;;;;;46.80;18.17;;;1.40;95.50;;;;;;5064019;28;20032;-76
2021/01/18 04:29:04;;;;;;;46.13;17.25;;;1.30;95.50;;;;;;5062215;28;20024;-76
2021/01/18 04:31:30;;;;;;;54.22;20.75;;;1.40;95.60;;;;;;5046132;28;20027;-76
2021/01/18 04:33:55;;;;;;;48.22;18.48;;;1.50;95.60;;;;;;5068535;28;20036;-76
2021/01/18 04:36:21;;;;;;;50.22;18.00;;;1.50;95.70;;;;;;5048965;28;20031;-76
2021/01/18 04:38:47;;;;;;;45.70;18.17;;;1.40;95.60;;;;;;5062296;28;20028;-76
2021/01/18 04:41:13;;;;;;;50.40;19.45;;;1.40;95.70;;;;;;5044913;28;20519;-76
2021/01/18 04:43:39;;;;;;;48.17;17.60;;;1.50;95.90;;;;;;5045462;28;20032;-76
2021/01/18 04:46:12;;;;;;;48.33;18.88;;;1.40;95.80;;;;;;5051516;28;20024;-77
2021/01/18 04:48:38;;;;;;;42.67;17.10;;;1.40;95.80;;;;;;5052913;28;20040;-76
2021/01/18 04:51:11;;;;;;;43.80;17.15;;;1.40;95.80;;;;;;5041573;28;20085;-76
2021/01/18 04:53:46;;;;;;;47.42;15.93;;;1.40;95.80;;;;;;5064309;28;20062;-76
2021/01/18 04:56:40;;;;;;;44.25;17.67;;;1.40;95.90;;;;;;5061711;28;20505;-77
2021/01/18 04:59:11;;;;;;;41.00;16.23;;;1.50;95.80;;;;;;5041561;28;20473;-76
2021/01/18 05:01:41;;;;;;;41.90;14.97;;;1.40;95.80;;;;;;5051394;28;20482;-76
2021/01/18 05:04:18;;;;;;;41.58;16.95;;;1.50;95.80;;;;;;5045137;28;20282;-76
2021/01/18 05:06:45;;;;;;;35.35;14.75;;;1.50;95.80;;;;;;5065646;28;20047;-76
2021/01/18 05:09:29;;;;;;;39.38;15.07;;;1.50;95.80;;;;;;5064922;28;20028;-76
2021/01/18 05:11:56;;;;;;;40.78;14.88;;;1.50;95.80;;;;;;5067251;28;20069;-76
2021/01/18 05:14:22;;;;;;;45.10;16.13;;;1.50;95.90;;;;;;5050970;28;20051;-77
2021/01/18 05:16:56;;;;;;;37.70;16.10;;;1.40;96.00;;;;;;5049900;28;20507;-77
2021/01/18 05:19:24;;;;;;;40.30;15.73;;;1.50;96.00;;;;;;5066154;28;20091;-76
2021/01/18 05:21:50;;;;;;;42.78;16.35;;;1.50;95.90;;;;;;5045957;28;20024;-77
2021/01/18 05:24:17;;;;;;;42.65;17.17;;;1.50;95.90;;;;;;5067614;28;20032;-76
2021/01/18 05:26:44;;;;;;;47.22;17.98;;;1.50;95.80;;;;;;5050014;28;20024;-77
2021/01/18 05:29:09;;;;;;;40.65;16.20;;;1.50;95.80;;;;;;5064108;28;20058;-76
2021/01/18 05:31:39;;;;;;;52.25;17.95;;;1.50;96.00;;;;;;5065272;28;20020;-77
2021/01/18 05:34:13;;;;;;;44.85;16.85;;;1.50;96.00;;;;;;5067859;28;20517;-76
2021/01/18 05:36:41;;;;;;;42.75;15.80;;;1.50;96.10;;;;;;5068044;28;20032;-76
2021/01/18 05:39:20;;;;;;;44.67;16.42;;;1.50;96.00;;;;;;5092669;28;20073;-75
2021/01/18 05:41:48;;;;;;;40.28;16.60;;;1.50;96.10;;;;;;5074941;28;20140;-75
2021/01/18 05:44:14;;;;;;;37.20;14.18;;;1.50;96.20;;;;;;5048326;28;20024;-76
2021/01/18 05:46:42;;;;;;;39.53;14.02;;;1.50;96.00;;;;;;5052639;28;20035;-77
2021/01/18 05:49:13;;;;;;;37.17;13.25;;;1.60;96.00;;;;;;5070067;28;20034;-76
2021/01/18 05:51:40;;;;;;;34.03;12.85;;;1.60;96.30;;;;;;5049754;28;20024;-76
2021/01/18 05:54:10;;;;;;;29.80;11.18;;;1.60;96.20;;;;;;5064145;28;20021;-76
2021/01/18 05:56:44;;;;;;;41.85;12.88;;;1.60;96.20;;;;;;5042512;28;20020;-75
2021/01/18 05:59:20;;;;;;;33.42;13.05;;;1.70;96.50;;;;;;5083486;28;20039;-76
2021/01/18 06:01:47;;;;;;;34.00;13.27;;;1.80;96.30;;;;;;5043090;28;20024;-75
2021/01/18 06:04:18;;;;;;;31.77;12.68;;;1.80;96.20;;;;;;5064125;28;20056;-78
2021/01/18 06:06:55;;;;;;;35.90;14.57;;;1.70;96.20;;;;;;5052429;28;20521;-76
2021/01/18 06:09:22;;;;;;;36.78;13.70;;;1.80;96.20;;;;;;5059798;28;20047;-75
2021/01/18 06:11:48;;;;;;;41.97;14.48;;;1.70;96.30;;;;;;5045007;28;20051;-76
2021/01/18 06:14:17;;;;;;;42.08;13.73;;;1.70;96.50;;;;;;5055162;28;20028;-76
2021/01/18 06:16:47;;;;;;;30.52;12.88;;;1.70;96.50;;;;;;5047640;28;20025;-76
2021/01/18 06:19:21;;;;;;;35.38;13.93;;;1.70;96.40;;;;;;5063624;28;20063;-75
2021/01/18 06:21:47;;;;;;;34.28;12.80;;;1.80;96.50;;;;;;5086286;28;20031;-74
2021/01/18 06:24:25;;;;;;;38.63;13.73;;;1.80;96.60;;;;;;5061344;28;20028;-78
2021/01/18 06:26:50;;;;;;;37.03;13.23;;;1.80;96.70;;;;;;5049394;28;20033;-76
2021/01/18 06:29:42;;;;;;;44.08;13.23;;;1.80;96.70;;;;;;5057374;28;20033;-76
2021/01/18 06:32:13;;;;;;;37.67;12.32;;;1.80;96.60;;;;;;5041004;28;20078;-78
2021/01/18 06:34:38;;;;;;;37.75;12.65;;;1.80;96.60;;;;;;5066916;28;20382;-77
2021/01/18 06:37:12;;;;;;;37.55;12.73;;;1.80;96.60;;;;;;5053215;28;20032;-77
2021/01/18 06:39:38;;;;;;;34.80;12.95;;;1.80;96.70;;;;;;5069986;28;20568;-76
2021/01/18 06:42:04;;;;;;;32.65;12.05;;;1.80;96.80;;;;;;5052432;28;20092;-78
2021/01/18 06:44:34;;;;;;;29.90;11.45;;;1.80;96.80;;;;;;5064675;28;20137;-79
2021/01/18 06:47:00;;;;;;;32.38;11.75;;;1.80;96.80;;;;;;5071592;28;20461;-79
2021/01/18 06:49:29;;;;;;;30.95;11.02;;;1.90;96.80;;;;;;5078771;28;20036;-79
2021/01/18 06:51:58;;;;;;;34.50;10.85;;;1.90;96.80;;;;;;5075473;28;20439;-79
2021/01/18 06:54:29;;;;;;;25.70;10.55;;;1.90;96.90;;;;;;5061616;28;20028;-80
2021/01/18 06:57:06;;;;;;;34.90;10.52;;;1.90;96.80;;;;;;5063316;28;20020;-79
2021/01/18 06:59:52;;;;;;;24.58;10.38;;;1.90;96.90;;;;;;5067287;28;20016;-79
2021/01/18 07:02:20;;;;;;;35.60;9.98;;;1.90;96.90;;;;;;5059271;28;20529;-77
2021/01/18 07:04:48;;;;;;;27.35;9.85;;;2.00;97.10;;;;;;5057404;28;20124;-77
2021/01/18 07:07:26;;;;;;;29.38;9.57;;;2.10;96.90;;;;;;5049759;28;20035;-77
2021/01/18 07:09:58;;;;;;;29.45;11.05;;;2.20;96.90;;;;;;5063128;28;20035;-76
2021/01/18 07:12:28;;;;;;;25.25;9.88;;;2.20;96.70;;;;;;5043997;28;20027;-77
2021/01/18 07:15:08;;;;;;;25.85;9.90;;;2.10;96.80;;;;;;5059696;28;20012;-76
2021/01/18 07:17:50;;;;;;;35.60;11.27;;;2.10;96.80;;;;;;5057447;28;20073;-76
2021/01/18 07:20:18;;;;;;;;;;;2.10;97.00;;;;;;5067620;28;20051;-77
2021/01/18 07:22:54;;;;;;;30.23;10.50;;;2.10;97.10;;;;;;5060523;28;20420;-76
2021/01/18 07:25:23;;;;;;;36.50;12.38;;;2.20;97.10;;;;;;5059905;28;20471;-76
2021/01/18 07:27:52;;;;;;;32.65;11.45;;;2.10;96.90;;;;;;5065041;28;20024;-77
2021/01/18 07:30:18;;;;;;;37.35;11.73;;;2.10;97.10;;;;;;5055256;28;21391;-76
2021/01/18 07:32:43;;;;;;;32.50;11.05;;;2.10;97.20;;;;;;5052162;28;20199;-76
2021/01/18 07:35:12;;;;;;;29.73;10.45;;;2.20;97.20;;;;;;5040986;28;20110;-75
2021/01/18 07:37:37;;;;;;;36.90;10.85;;;2.20;97.30;;;;;;5041942;28;20031;-76
2021/01/18 07:40:13;;;;;;;34.75;11.10;;;2.20;97.30;;;;;;5055595;28;20028;-77
2021/01/18 07:42:41;;;;;;;31.35;11.73;;;2.20;97.20;;;;;;5054838;28;20111;-77
2021/01/18 07:45:17;;;;;;;30.05;9.90;;;2.20;97.30;;;;;;5048903;28;20020;-76
2021/01/18 07:47:58;;;;;;;28.35;9.70;;;2.20;97.20;;;;;;5039817;28;20482;-77
2021/01/18 07:50:31;;;;;;;26.00;9.73;;;2.20;97.30;;;;;;5059294;28;20039;-74
2021/01/18 07:53:08;;;;;;;27.20;10.20;;;2.30;97.40;;;;;;5057343;28;20103;-74
2021/01/18 07:55:35;;;;;;;32.30;10.80;;;2.30;97.30;;;;;;5042385;28;20035;-76
2021/01/18 07:58:16;;;;;;;34.47;10.82;;;2.30;97.20;;;;;;5040622;28;20391;-76
2021/01/18 08:00:43;;;;;;;31.08;10.68;;;2.30;97.40;;;;;;5036710;28;20013;-79
2021/01/18 08:03:11;;;;;;;27.75;10.88;;;2.30;97.40;;;;;;5060776;28;20656;-76
2021/01/18 08:05:39;;;;;;;34.65;11.40;;;2.30;97.40;;;;;;5044828;28;20028;-76
2021/01/18 08:08:16;;;;;;;39.92;11.77;;;2.30;97.40;;;;;;5059582;28;20021;-75
2021/01/18 08:11:13;;;;;;;31.40;10.63;;;2.30;97.40;;;;;;5042815;28;20029;-76
2021/01/18 08:13:53;;;;;;;38.13;12.90;;;2.40;97.60;;;;;;5050089;28;20025;-75
2021/01/18 08:16:39;;;;;;;27.73;11.40;;;2.40;97.60;;;;;;5052816;28;20028;-75
2021/01/18 08:19:14;;;;;;;27.50;10.82;;;2.50;97.60;;;;;;5039614;28;20027;-76
2021/01/18 08:21:45;;;;;;;36.58;11.95;;;2.40;97.40;;;;;;5044621;28;20020;-76
2021/01/18 08:24:23;;;;;;;39.05;13.20;;;2.40;97.40;;;;;;5039369;28;20025;-74
2021/01/18 08:27:04;;;;;;;33.08;12.77;;;2.50;97.40;;;;;;5079929;28;20192;-75
2021/01/18 08:29:45;;;;;;;40.75;12.70;;;2.50;97.40;;;;;;5040110;28;20091;-75
2021/01/18 08:32:23;;;;;;;37.53;12.98;;;2.50;97.40;;;;;;5060617;28;20046;-75
2021/01/18 08:34:55;;;;;;;35.97;13.05;;;2.60;97.50;;;;;;5059181;28;20028;-69
2021/01/18 08:37:25;;;;;;;33.20;11.98;;;2.60;97.40;;;;;;5061259;28;20033;-75
2021/01/18 08:40:14;;;;;;;32.88;12.48;;;2.60;97.40;;;;;;5061673;28;20030;-74
2021/01/18 08:42:41;;;;;;;36.13;11.38;;;2.70;97.50;;;;;;5057339;28;20028;-75
2021/01/18 08:45:07;;;;;;;44.22;12.25;;;2.70;97.30;;;;;;5064681;28;20372;-74
2021/01/18 08:47:47;;;;;;;32.22;12.00;;;2.60;97.30;;;;;;5049863;28;20368;-75
2021/01/18 08:50:28;;;;;;;44.35;12.70;;;2.60;97.30;;;;;;5068153;28;20024;-74
2021/01/18 08:53:00;;;;;;;32.47;10.88;;;2.70;97.40;;;;;;5044524;28;20025;-74
2021/01/18 08:55:29;;;;;;;29.05;11.40;;;2.70;97.50;;;;;;5069194;28;20051;-74
2021/01/18 08:58:29;;;;;;;32.10;11.60;;;2.80;97.40;;;;;;5047237;28;20033;-74
2021/01/18 09:00:58;;;;;;;48.70;13.63;;;2.80;97.50;;;;;;5058887;28;20044;-75
2021/01/18 09:03:24;;;;;;;38.22;11.82;;;2.80;97.50;;;;;;5055009;28;20042;-75
2021/01/18 09:05:58;;;;;;;49.97;14.15;;;2.80;97.50;;;;;;5041918;28;20021;-75
2021/01/18 09:08:33;;;;;;;36.92;12.73;;;2.80;97.40;;;;;;5058390;28;20048;-73
2021/01/18 09:11:06;;;;;;;44.28;14.10;;;2.80;97.30;;;;;;5075093;28;20028;-73
2021/01/18 09:14:20;;;;;;;49.58;14.38;;;2.90;97.50;;;;;;5127081;22;20131;-73
2021/01/18 09:16:49;;;;;;;46.08;15.00;;;2.90;97.50;;;;;;5032635;28;20037;-74
2021/01/18 09:19:14;;;;;;;47.25;14.60;;;2.90;97.40;;;;;;5069296;28;20395;-72
2021/01/18 09:21:41;;;;;;;48.30;15.15;;;2.90;97.50;;;;;;5047232;28;20513;-74
2021/01/18 09:24:08;;;;;;;57.53;17.42;;;3.00;97.40;;;;;;5084909;28;20028;-73
2021/01/18 09:26:37;;;;;;;52.05;16.40;;;2.90;97.50;;;;;;5071190;28;20387;-74
2021/01/18 09:29:08;;;;;;;52.72;16.40;;;3.00;97.50;;;;;;5065680;28;20123;-77
2021/01/18 09:31:34;;;;;;;62.92;16.58;;;3.00;97.50;;;;;;5050377;28;20028;-73
2021/01/18 09:34:11;;;;;;;56.10;17.20;;;3.00;97.50;;;;;;5050054;28;20032;-73
2021/01/18 09:36:39;;;;;;;62.00;16.13;;;3.00;97.50;;;;;;5085086;28;20506;-73
2021/01/18 09:39:05;;;;;;;55.65;17.67;;;3.00;97.50;;;;;;5054499;28;20130;-75
2021/01/18 09:41:32;;;;;;;61.50;18.98;;;3.10;97.50;;;;;;5066083;28;20031;-73
2021/01/18 09:44:04;;;;;;;48.95;17.42;;;3.20;97.50;;;;;;5073374;28;20028;-74
2021/01/18 09:47:29;;;;;;;;;;;;;;;;;;;;;
2021/01/18 09:50:09;;;;;;;64.85;18.92;;;3.20;97.30;;;;;;5063557;28;20109;-73
2021/01/18 09:52:39;;;;;;;63.77;18.80;;;3.20;97.40;;;;;;5052884;28;20026;-74
2021/01/18 09:55:16;;;;;;;61.67;18.20;;;3.20;97.40;;;;;;5060978;28;20030;-75
2021/01/18 09:57:48;;;;;;;67.35;19.40;;;3.20;97.30;;;;;;5073907;28;20353;-73
2021/01/18 10:00:15;;;;;;;62.55;18.90;;;3.20;97.30;;;;;;5089044;28;20039;-74
2021/01/18 10:02:43;;;;;;;66.85;19.50;;;3.20;97.30;;;;;;5057709;28;20050;-74
2021/01/18 10:05:13;;;;;;;64.93;18.10;;;3.20;97.40;;;;;;5070904;28;20021;-74
2021/01/18 10:07:45;;;;;;;64.22;18.55;;;3.30;97.40;;;;;;5088399;28;20126;-75
2021/01/18 10:10:12;;;;;;;57.63;18.20;;;3.30;97.50;;;;;;5069494;28;20036;-74
2021/01/18 10:12:41;;;;;;;58.03;17.80;;;3.30;97.40;;;;;;5071324;28;20507;-75
2021/01/18 10:15:16;;;;;;;54.45;16.88;;;3.30;97.30;;;;;;5052004;28;20055;-74
2021/01/18 10:17:51;;;;;;;51.05;17.80;;;3.30;97.20;;;;;;5070765;28;20519;-74
2021/01/18 10:20:22;;;;;;;45.97;17.13;;;3.30;97.20;;;;;;5070442;28;20066;-75
2021/01/18 10:22:48;;;;;;;46.22;16.88;;;3.30;97.20;;;;;;5075982;28;20023;-72
2021/01/18 10:25:14;;;;;;;47.10;17.05;;;3.30;97.20;;;;;;5069731;28;20578;-74
2021/01/18 10:27:56;;;;;;;57.38;18.30;;;3.30;97.30;;;;;;5055044;28;20043;-73
2021/01/18 10:30:28;;;;;;;52.53;18.80;;;3.40;97.50;;;;;;5058998;28;20024;-75
2021/01/18 10:32:58;;;;;;;49.75;17.80;;;3.40;97.50;;;;;;5048643;28;20040;-74
2021/01/18 10:35:31;;;;;;;55.55;18.38;;;3.40;97.60;;;;;;5074096;28;20029;-74
2021/01/18 10:38:36;;;;;;;49.42;16.55;;;3.40;97.60;;;;;;5093469;28;20903;-75
2021/01/18 10:41:08;;;;;;;45.17;17.00;;;3.50;97.60;;;;;;4995499;28;20037;-73
2021/01/18 10:43:34;;;;;;;43.33;16.17;;;3.50;97.60;;;;;;5062595;28;20051;-73
2021/01/18 10:46:03;;;;;;;44.20;15.00;;;3.50;97.50;;;;;;5058001;28;20676;-73
2021/01/18 10:48:33;;;;;;;45.45;16.23;;;3.50;97.70;;;;;;5070932;28;20032;-74
2021/01/18 10:51:02;;;;;;;41.95;14.80;;;3.60;97.60;;;;;;5090582;28;20379;-73
2021/01/18 10:53:29;;;;;;;41.67;14.98;;;3.60;97.50;;;;;;5068149;28;20078;-73
2021/01/18 10:56:12;;;;;;;39.47;14.35;;;3.60;97.50;;;;;;5067994;28;20027;-74
2021/01/18 10:58:39;;;;;;;43.15;14.93;;;3.60;97.40;;;;;;5086079;28;20021;-73
2021/01/18 11:01:13;;;;;;;35.97;15.02;;;3.70;97.40;;;;;;5046946;28;20021;-72
2021/01/18 11:03:42;;;;;;;32.05;13.65;;;3.70;97.30;;;;;;5055926;28;20112;-73
2021/01/18 11:06:13;;;;;;;38.40;15.10;;;3.80;97.20;;;;;;5067970;28;20019;-72
2021/01/18 11:08:39;;;;;;;34.08;15.07;;;3.70;97.10;;;;;;5050592;28;20107;-72
2021/01/18 11:11:18;;;;;;;37.08;14.15;;;3.70;97.20;;;;;;5071948;28;20095;-72
2021/01/18 11:13:45;;;;;;;32.92;14.90;;;3.70;97.30;;;;;;5086571;28;20036;-73
2021/01/18 11:16:15;;;;;;;39.88;15.20;;;3.70;97.40;;;;;;5052787;28;20016;-74
2021/01/18 11:18:41;;;;;;;35.85;14.90;;;3.70;97.40;;;;;;5092557;28;20032;-73
2021/01/18 11:21:07;;;;;;;37.88;15.38;;;3.70;97.30;;;;;;5051605;28;20119;-74
2021/01/18 11:23:33;;;;;;;35.85;14.70;;;3.70;97.40;;;;;;5072597;28;20461;-75
2021/01/18 11:25:59;;;;;;;38.55;15.75;;;3.70;97.40;;;;;;5063341;28;20032;-72
2021/01/18 11:28:25;;;;;;;38.10;15.07;;;3.70;97.50;;;;;;5066274;28;20449;-73
2021/01/18 11:30:52;;;;;;;42.60;16.88;;;3.70;97.50;;;;;;5067833;28;20028;-71
2021/01/18 11:33:17;;;;;;;39.75;17.05;;;3.70;97.50;;;;;;5070648;28;20542;-73
2021/01/18 11:35:44;;;;;;;42.13;16.73;;;3.80;97.50;;;;;;5055862;28;20152;-73
2021/01/18 11:38:12;;;;;;;43.72;16.70;;;3.80;97.40;;;;;;5067256;28;20043;-73
2021/01/18 11:40:38;;;;;;;38.85;17.23;;;3.80;97.40;;;;;;5071286;28;20077;-73
2021/01/18 11:43:03;;;;;;;40.30;17.27;;;3.80;97.40;;;;;;5069090;28;20051;-72
2021/01/18 11:45:29;;;;;;;43.47;17.52;;;3.90;97.40;;;;;;5070130;28;20058;-72
2021/01/18 11:47:57;;;;;;;49.45;19.42;;;3.90;97.50;;;;;;5070576;28;20036;-73
2021/01/18 11:50:23;;;;;;;50.33;19.83;;;3.90;97.50;;;;;;5065369;28;20028;-73
2021/01/18 11:52:51;;;;;;;46.92;20.85;;;3.90;97.50;;;;;;5087220;28;20051;-72
2021/01/18 11:55:18;;;;;;;46.85;20.55;;;3.90;97.50;;;;;;5048831;28;20024;-72
2021/01/18 11:57:46;;;;;;;44.47;19.05;;;4.00;97.60;;;;;;5050100;28;20036;-72
2021/01/18 12:00:17;;;;;;;48.08;18.80;;;4.00;97.50;;;;;;5053933;28;20035;-73
2021/01/18 12:02:42;;;;;;;48.00;19.45;;;4.00;97.40;;;;;;5069701;28;20028;-72
2021/01/18 12:05:09;;;;;;;53.17;21.42;;;4.00;97.50;;;;;;5053312;28;20025;-74
2021/01/18 12:07:35;;;;;;;47.30;20.23;;;4.10;97.40;;;;;;5069155;28;20116;-74
2021/01/18 12:10:00;;;;;;;55.47;21.38;;;4.10;97.40;;;;;;5052289;28;20115;-72
2021/01/18 12:12:26;;;;;;;54.03;21.35;;;4.10;97.20;;;;;;5052282;28;20012;-71
2021/01/18 12:14:52;;;;;;;54.55;22.45;;;4.10;97.20;;;;;;5074030;28;20039;-71
2021/01/18 12:17:18;;;;;;;50.97;21.63;;;4.10;97.20;;;;;;5070059;28;20020;-72
2021/01/18 12:19:46;;;;;;;55.63;23.73;;;4.10;97.30;;;;;;5091602;28;20036;-72
2021/01/18 12:22:11;;;;;;;52.33;20.92;;;4.10;97.40;;;;;;5072273;28;20028;-72
2021/01/18 12:24:37;;;;;;;58.67;20.88;;;4.10;97.50;;;;;;5071447;28;20028;-70
2021/01/18 12:27:03;;;;;;;60.75;22.20;;;4.10;97.50;;;;;;5068675;28;20430;-73
2021/01/18 12:29:32;;;;;;;53.67;23.23;;;4.10;97.50;;;;;;5070758;28;20113;-71
2021/01/18 12:31:57;;;;;;;60.17;23.42;;;4.10;97.50;;;;;;5056388;28;20495;-71
2021/01/18 12:34:23;;;;;;;62.30;24.42;;;4.10;97.70;;;;;;5065230;28;20028;-71
2021/01/18 12:36:56;;;;;;;60.38;24.45;;;4.10;97.70;;;;;;5053403;28;20020;-71
2021/01/18 12:39:23;;;;;;;73.80;25.30;;;4.20;97.50;;;;;;5067974;28;20042;-71
2021/01/18 12:41:49;;;;;;;59.47;24.05;;;4.10;97.50;;;;;;5066992;28;20020;-71
2021/01/18 12:44:18;;;;;;;57.67;24.27;;;4.20;97.70;;;;;;5070095;28;20031;-74
2021/01/18 12:46:46;;;;;;;57.28;23.55;;;4.20;97.70;;;;;;5069481;28;20056;-72
2021/01/18 12:49:11;;;;;;;54.10;22.92;;;4.20;97.60;;;;;;5067300;28;20024;-72
2021/01/18 12:51:37;;;;;;;54.88;25.83;;;4.20;97.60;;;;;;5067424;28;20022;-72
2021/01/18 12:54:03;;;;;;;51.22;22.95;;;4.20;97.70;;;;;;5050188;28;20051;-73
2021/01/18 12:56:29;;;;;;;53.25;22.77;;;4.20;97.70;;;;;;5065148;28;20059;-73